sensor_id;sensor_type;location;lat;lon;timestamp;temperature;humidity
22682;DHT22;11508;50.856;4.380;2023-06-14T00:31:01;22.40;99.90
22682;DHT22;11508;50.856;4.380;2023-06-14T00:33:26;22.40;99.90
22682;DHT22;11508;50.856;4.380;2023-06-14T00:35:52;22.40;99.90
22682;DHT22;11508;50.856;4.380;2023-06-14T00:38:20;22.40;99.90
22682;DHT22;11508;50.856;4.380;2023-06-14T00:40:46;22.40;99.90
22682;DHT22;11508;50.856;4.380;2023-06-14T00:43:12;22.40;99.90
22682;DHT22;11508;50.856;4.380;2023-06-14T00:45:37;22.40;99.90
22682;DHT22;11508;50.856;4.380;2023-06-14T00:48:04;22.40;99.90
22682;DHT22;11508;50.856;4.380;2023-06-14T00:50:31;22.40;99.90
22682;DHT22;11508;50.856;4.380;2023-06-14T00:52:59;22.50;99.90
22682;DHT22;11508;50.856;4.380;2023-06-14T00:55:26;22.40;99.90
22682;DHT22;11508;50.856;4.380;2023-06-14T00:57:53;22.40;99.90
22682;DHT22;11508;50.856;4.380;2023-06-14T01:00:19;22.10;99.90
22682;DHT22;11508;50.856;4.380;2023-06-14T01:02:44;22.10;99.90
22682;DHT22;11508;50.856;4.380;2023-06-14T01:05:10;22.10;99.90
22682;DHT22;11508;50.856;4.380;2023-06-14T01:07:55;22.10;99.90
22682;DHT22;11508;50.856;4.380;2023-06-14T01:10:47;22.10;99.90
22682;DHT22;11508;50.856;4.380;2023-06-14T01:13:38;22.20;99.90
22682;DHT22;11508;50.856;4.380;2023-06-14T01:16:05;22.10;99.90
22682;DHT22;11508;50.856;4.380;2023-06-14T01:18:39;22.10;99.90
22682;DHT22;11508;50.856;4.380;2023-06-14T01:21:20;22.10;99.90
22682;DHT22;11508;50.856;4.380;2023-06-14T01:23:46;22.00;99.90
22682;DHT22;11508;50.856;4.380;2023-06-14T01:26:24;22.00;99.90
22682;DHT22;11508;50.856;4.380;2023-06-14T01:28:52;22.00;99.90
22682;DHT22;11508;50.856;4.380;2023-06-14T01:31:23;22.10;99.90
22682;DHT22;11508;50.856;4.380;2023-06-14T01:33:51;22.10;99.90
22682;DHT22;11508;50.856;4.380;2023-06-14T01:36:20;22.00;99.90
22682;DHT22;11508;50.856;4.380;2023-06-14T01:38:47;22.00;99.90
22682;DHT22;11508;50.856;4.380;2023-06-14T01:41:16;21.90;99.90
22682;DHT22;11508;50.856;4.380;2023-06-14T01:43:43;21.80;99.90
22682;DHT22;11508;50.856;4.380;2023-06-14T01:46:10;21.70;99.90
22682;DHT22;11508;50.856;4.380;2023-06-14T01:48:36;21.60;99.90
22682;DHT22;11508;50.856;4.380;2023-06-14T01:51:01;21.40;99.90
22682;DHT22;11508;50.856;4.380;2023-06-14T01:53:28;21.30;99.90
22682;DHT22;11508;50.856;4.380;2023-06-14T01:55:53;21.30;99.90
22682;DHT22;11508;50.856;4.380;2023-06-14T01:58:19;21.30;99.90
22682;DHT22;11508;50.856;4.380;2023-06-14T02:00:46;21.30;99.90
22682;DHT22;11508;50.856;4.380;2023-06-14T02:03:12;21.20;99.90
22682;DHT22;11508;50.856;4.380;2023-06-14T02:05:38;21.20;99.90
22682;DHT22;11508;50.856;4.380;2023-06-14T02:08:06;21.10;99.90
22682;DHT22;11508;50.856;4.380;2023-06-14T02:10:31;21.20;99.90
22682;DHT22;11508;50.856;4.380;2023-06-14T02:12:57;21.20;99.90
22682;DHT22;11508;50.856;4.380;2023-06-14T02:15:23;21.20;99.90
22682;DHT22;11508;50.856;4.380;2023-06-14T02:17:49;21.00;99.90
22682;DHT22;11508;50.856;4.380;2023-06-14T02:20:16;21.00;99.90
22682;DHT22;11508;50.856;4.380;2023-06-14T02:22:42;20.90;99.90
22682;DHT22;11508;50.856;4.380;2023-06-14T02:25:08;20.80;99.90
22682;DHT22;11508;50.856;4.380;2023-06-14T02:27:34;20.90;99.90
22682;DHT22;11508;50.856;4.380;2023-06-14T02:30:01;20.90;99.90
22682;DHT22;11508;50.856;4.380;2023-06-14T02:32:26;21.00;99.90
22682;DHT22;11508;50.856;4.380;2023-06-14T02:34:53;20.90;99.90
22682;DHT22;11508;50.856;4.380;2023-06-14T02:37:19;20.90;99.90
22682;DHT22;11508;50.856;4.380;2023-06-14T02:39:45;20.90;99.90
22682;DHT22;11508;50.856;4.380;2023-06-14T02:42:10;20.80;99.90
22682;DHT22;11508;50.856;4.380;2023-06-14T02:44:36;20.70;99.90
22682;DHT22;11508;50.856;4.380;2023-06-14T02:47:02;20.70;99.90
22682;DHT22;11508;50.856;4.380;2023-06-14T02:49:28;20.80;99.90
22682;DHT22;11508;50.856;4.380;2023-06-14T02:51:55;20.70;99.90
22682;DHT22;11508;50.856;4.380;2023-06-14T02:54:20;20.70;99.90
22682;DHT22;11508;50.856;4.380;2023-06-14T02:56:46;20.70;99.90
22682;DHT22;11508;50.856;4.380;2023-06-14T02:59:12;20.70;99.90
22682;DHT22;11508;50.856;4.380;2023-06-14T03:01:39;20.60;99.90
22682;DHT22;11508;50.856;4.380;2023-06-14T03:04:07;20.50;99.90
22682;DHT22;11508;50.856;4.380;2023-06-14T03:06:33;20.50;99.90
22682;DHT22;11508;50.856;4.380;2023-06-14T03:08:59;20.40;99.90
22682;DHT22;11508;50.856;4.380;2023-06-14T03:11:27;20.30;99.90
22682;DHT22;11508;50.856;4.380;2023-06-14T03:13:53;20.30;99.90
22682;DHT22;11508;50.856;4.380;2023-06-14T03:16:19;20.20;99.90
22682;DHT22;11508;50.856;4.380;2023-06-14T03:18:45;20.30;99.90
22682;DHT22;11508;50.856;4.380;2023-06-14T03:21:11;20.20;99.90
22682;DHT22;11508;50.856;4.380;2023-06-14T03:23:36;20.00;99.90
22682;DHT22;11508;50.856;4.380;2023-06-14T03:26:02;20.00;99.90
22682;DHT22;11508;50.856;4.380;2023-06-14T03:28:28;20.10;99.90
22682;DHT22;11508;50.856;4.380;2023-06-14T03:30:53;20.10;99.90
22682;DHT22;11508;50.856;4.380;2023-06-14T03:33:19;20.10;99.90
22682;DHT22;11508;50.856;4.380;2023-06-14T03:35:46;20.10;99.90
22682;DHT22;11508;50.856;4.380;2023-06-14T03:38:12;20.10;99.90
22682;DHT22;11508;50.856;4.380;2023-06-14T03:40:38;20.20;99.90
22682;DHT22;11508;50.856;4.380;2023-06-14T03:43:03;20.10;99.90
22682;DHT22;11508;50.856;4.380;2023-06-14T03:45:29;20.10;99.90
22682;DHT22;11508;50.856;4.380;2023-06-14T03:47:55;20.10;99.90
22682;DHT22;11508;50.856;4.380;2023-06-14T03:50:21;20.20;99.90
22682;DHT22;11508;50.856;4.380;2023-06-14T03:52:48;20.10;99.90
22682;DHT22;11508;50.856;4.380;2023-06-14T03:55:14;20.20;99.90
22682;DHT22;11508;50.856;4.380;2023-06-14T03:57:41;20.20;99.90
22682;DHT22;11508;50.856;4.380;2023-06-14T04:00:08;20.20;99.90
22682;DHT22;11508;50.856;4.380;2023-06-14T04:02:35;20.10;99.90
22682;DHT22;11508;50.856;4.380;2023-06-14T04:05:02;20.10;99.90
22682;DHT22;11508;50.856;4.380;2023-06-14T04:07:28;20.10;99.90
22682;DHT22;11508;50.856;4.380;2023-06-14T04:09:54;20.10;99.90
22682;DHT22;11508;50.856;4.380;2023-06-14T04:12:20;19.90;99.90
22682;DHT22;11508;50.856;4.380;2023-06-14T04:14:45;19.60;99.90
22682;DHT22;11508;50.856;4.380;2023-06-14T04:17:11;19.60;99.90
22682;DHT22;11508;50.856;4.380;2023-06-14T04:19:37;19.70;99.90
22682;DHT22;11508;50.856;4.380;2023-06-14T04:22:03;19.80;99.90
22682;DHT22;11508;50.856;4.380;2023-06-14T04:24:29;19.80;99.90
22682;DHT22;11508;50.856;4.380;2023-06-14T04:26:58;19.90;99.90
22682;DHT22;11508;50.856;4.380;2023-06-14T04:29:24;20.00;99.90
22682;DHT22;11508;50.856;4.380;2023-06-14T04:31:54;19.90;99.90
22682;DHT22;11508;50.856;4.380;2023-06-14T04:34:20;19.80;99.90
22682;DHT22;11508;50.856;4.380;2023-06-14T04:36:47;19.90;99.90
22682;DHT22;11508;50.856;4.380;2023-06-14T04:39:21;19.80;99.90
22682;DHT22;11508;50.856;4.380;2023-06-14T04:41:47;19.60;99.90
22682;DHT22;11508;50.856;4.380;2023-06-14T04:44:17;19.60;99.90
22682;DHT22;11508;50.856;4.380;2023-06-14T04:46:43;19.70;99.90
22682;DHT22;11508;50.856;4.380;2023-06-14T04:49:18;20.00;99.90
22682;DHT22;11508;50.856;4.380;2023-06-14T04:51:45;20.30;99.90
22682;DHT22;11508;50.856;4.380;2023-06-14T04:54:11;21.00;99.90
22682;DHT22;11508;50.856;4.380;2023-06-14T04:56:41;21.90;99.90
22682;DHT22;11508;50.856;4.380;2023-06-14T04:59:07;22.40;99.90
22682;DHT22;11508;50.856;4.380;2023-06-14T05:01:34;23.20;99.90
22682;DHT22;11508;50.856;4.380;2023-06-14T05:04:00;24.10;99.90
22682;DHT22;11508;50.856;4.380;2023-06-14T05:06:26;24.80;99.90
22682;DHT22;11508;50.856;4.380;2023-06-14T05:08:53;25.70;99.90
22682;DHT22;11508;50.856;4.380;2023-06-14T05:11:19;26.10;99.90
22682;DHT22;11508;50.856;4.380;2023-06-14T05:13:45;26.70;99.90
22682;DHT22;11508;50.856;4.380;2023-06-14T05:16:11;26.10;99.90
22682;DHT22;11508;50.856;4.380;2023-06-14T05:18:38;26.00;99.90
22682;DHT22;11508;50.856;4.380;2023-06-14T05:21:05;26.70;99.90
22682;DHT22;11508;50.856;4.380;2023-06-14T05:23:31;27.50;99.90
22682;DHT22;11508;50.856;4.380;2023-06-14T05:25:57;27.50;99.90
22682;DHT22;11508;50.856;4.380;2023-06-14T05:28:23;27.00;99.90
22682;DHT22;11508;50.856;4.380;2023-06-14T05:30:49;26.30;99.90
22682;DHT22;11508;50.856;4.380;2023-06-14T05:33:15;25.40;99.90
22682;DHT22;11508;50.856;4.380;2023-06-14T05:35:41;24.00;99.90
22682;DHT22;11508;50.856;4.380;2023-06-14T05:38:06;23.30;99.90
22682;DHT22;11508;50.856;4.380;2023-06-14T05:40:33;22.90;99.90
22682;DHT22;11508;50.856;4.380;2023-06-14T05:42:59;22.90;99.90
22682;DHT22;11508;50.856;4.380;2023-06-14T05:45:24;24.30;99.90
22682;DHT22;11508;50.856;4.380;2023-06-14T05:47:50;26.00;99.90
22682;DHT22;11508;50.856;4.380;2023-06-14T05:50:20;27.40;99.90
22682;DHT22;11508;50.856;4.380;2023-06-14T05:52:45;28.90;99.90
22682;DHT22;11508;50.856;4.380;2023-06-14T05:55:11;30.60;99.90
22682;DHT22;11508;50.856;4.380;2023-06-14T05:57:40;31.10;99.90
22682;DHT22;11508;50.856;4.380;2023-06-14T06:00:07;31.00;99.90
22682;DHT22;11508;50.856;4.380;2023-06-14T06:02:36;32.10;99.90
22682;DHT22;11508;50.856;4.380;2023-06-14T06:05:02;32.60;99.90
22682;DHT22;11508;50.856;4.380;2023-06-14T06:07:28;33.00;99.90
22682;DHT22;11508;50.856;4.380;2023-06-14T06:09:54;33.90;99.90
22682;DHT22;11508;50.856;4.380;2023-06-14T06:12:20;34.20;99.90
22682;DHT22;11508;50.856;4.380;2023-06-14T06:14:45;34.00;99.90
22682;DHT22;11508;50.856;4.380;2023-06-14T06:17:11;33.90;99.90
22682;DHT22;11508;50.856;4.380;2023-06-14T06:19:37;33.80;99.90
22682;DHT22;11508;50.856;4.380;2023-06-14T06:22:02;34.10;99.90
22682;DHT22;11508;50.856;4.380;2023-06-14T06:24:31;33.90;99.90
22682;DHT22;11508;50.856;4.380;2023-06-14T06:26:57;34.00;99.90
22682;DHT22;11508;50.856;4.380;2023-06-14T06:29:23;33.90;99.90
22682;DHT22;11508;50.856;4.380;2023-06-14T06:31:48;34.00;99.90
22682;DHT22;11508;50.856;4.380;2023-06-14T06:34:14;34.00;99.90
22682;DHT22;11508;50.856;4.380;2023-06-14T06:36:40;33.60;99.90
22682;DHT22;11508;50.856;4.380;2023-06-14T06:39:05;32.70;99.90
22682;DHT22;11508;50.856;4.380;2023-06-14T06:41:37;33.40;99.90
22682;DHT22;11508;50.856;4.380;2023-06-14T06:44:05;34.20;99.90
22682;DHT22;11508;50.856;4.380;2023-06-14T06:46:32;34.70;99.90
22682;DHT22;11508;50.856;4.380;2023-06-14T06:48:57;34.50;99.90
22682;DHT22;11508;50.856;4.380;2023-06-14T06:51:23;34.00;99.90
22682;DHT22;11508;50.856;4.380;2023-06-14T06:53:55;34.10;99.90
22682;DHT22;11508;50.856;4.380;2023-06-14T06:56:21;35.30;99.90
22682;DHT22;11508;50.856;4.380;2023-06-14T06:58:50;34.50;99.90
22682;DHT22;11508;50.856;4.380;2023-06-14T07:01:17;34.50;99.90
22682;DHT22;11508;50.856;4.380;2023-06-14T07:03:43;34.20;99.90
22682;DHT22;11508;50.856;4.380;2023-06-14T07:06:09;33.50;99.90
22682;DHT22;11508;50.856;4.380;2023-06-14T07:08:35;33.10;99.90
22682;DHT22;11508;50.856;4.380;2023-06-14T07:11:01;33.90;99.90
22682;DHT22;11508;50.856;4.380;2023-06-14T07:13:27;34.00;99.90
22682;DHT22;11508;50.856;4.380;2023-06-14T07:15:58;34.20;99.90
22682;DHT22;11508;50.856;4.380;2023-06-14T07:18:24;34.50;99.90
22682;DHT22;11508;50.856;4.380;2023-06-14T07:20:50;34.50;99.90
22682;DHT22;11508;50.856;4.380;2023-06-14T07:23:17;35.70;99.90
22682;DHT22;11508;50.856;4.380;2023-06-14T07:25:43;36.40;99.90
22682;DHT22;11508;50.856;4.380;2023-06-14T07:28:08;35.70;99.90
22682;DHT22;11508;50.856;4.380;2023-06-14T07:30:35;34.80;99.90
22682;DHT22;11508;50.856;4.380;2023-06-14T07:33:00;34.60;99.90
22682;DHT22;11508;50.856;4.380;2023-06-14T07:35:26;34.90;99.90
22682;DHT22;11508;50.856;4.380;2023-06-14T07:37:52;36.10;99.90
22682;DHT22;11508;50.856;4.380;2023-06-14T07:40:18;35.50;99.90
22682;DHT22;11508;50.856;4.380;2023-06-14T07:42:44;36.90;99.90
22682;DHT22;11508;50.856;4.380;2023-06-14T07:45:10;37.80;99.90
22682;DHT22;11508;50.856;4.380;2023-06-14T07:47:36;38.60;99.90
22682;DHT22;11508;50.856;4.380;2023-06-14T07:50:01;39.10;99.90
22682;DHT22;11508;50.856;4.380;2023-06-14T07:52:28;39.30;99.90
22682;DHT22;11508;50.856;4.380;2023-06-14T07:54:54;39.80;99.90
22682;DHT22;11508;50.856;4.380;2023-06-14T07:57:19;39.40;99.90
22682;DHT22;11508;50.856;4.380;2023-06-14T07:59:46;39.10;99.90
22682;DHT22;11508;50.856;4.380;2023-06-14T08:02:11;39.50;99.90
22682;DHT22;11508;50.856;4.380;2023-06-14T08:04:37;39.40;99.90
22682;DHT22;11508;50.856;4.380;2023-06-14T08:07:06;39.30;99.90
22682;DHT22;11508;50.856;4.380;2023-06-14T08:09:32;39.60;99.90
22682;DHT22;11508;50.856;4.380;2023-06-14T08:11:58;38.60;99.90
22682;DHT22;11508;50.856;4.380;2023-06-14T08:14:24;38.90;99.90
22682;DHT22;11508;50.856;4.380;2023-06-14T08:16:49;39.50;99.90
22682;DHT22;11508;50.856;4.380;2023-06-14T08:19:15;38.90;99.90
22682;DHT22;11508;50.856;4.380;2023-06-14T08:21:42;39.00;99.90
22682;DHT22;11508;50.856;4.380;2023-06-14T08:24:11;39.10;99.90
22682;DHT22;11508;50.856;4.380;2023-06-14T08:26:38;38.90;99.90
22682;DHT22;11508;50.856;4.380;2023-06-14T08:29:04;39.10;99.90
22682;DHT22;11508;50.856;4.380;2023-06-14T08:31:32;38.50;99.90
22682;DHT22;11508;50.856;4.380;2023-06-14T08:33:58;38.50;99.90
22682;DHT22;11508;50.856;4.380;2023-06-14T08:36:24;38.20;99.90
22682;DHT22;11508;50.856;4.380;2023-06-14T08:38:49;39.00;99.90
22682;DHT22;11508;50.856;4.380;2023-06-14T08:41:20;39.10;99.90
22682;DHT22;11508;50.856;4.380;2023-06-14T08:43:47;37.90;99.90
22682;DHT22;11508;50.856;4.380;2023-06-14T08:46:15;36.40;99.90
22682;DHT22;11508;50.856;4.380;2023-06-14T08:48:47;34.60;99.90
22682;DHT22;11508;50.856;4.380;2023-06-14T08:51:19;34.40;99.90
22682;DHT22;11508;50.856;4.380;2023-06-14T08:53:54;34.30;99.90
22682;DHT22;11508;50.856;4.380;2023-06-14T08:56:26;34.20;99.90
22682;DHT22;11508;50.856;4.380;2023-06-14T08:58:53;33.00;99.90
22682;DHT22;11508;50.856;4.380;2023-06-14T09:01:20;32.20;99.90
22682;DHT22;11508;50.856;4.380;2023-06-14T09:03:48;32.00;99.90
22682;DHT22;11508;50.856;4.380;2023-06-14T09:06:14;33.30;99.90
22682;DHT22;11508;50.856;4.380;2023-06-14T09:08:42;34.30;99.90
22682;DHT22;11508;50.856;4.380;2023-06-14T09:11:11;35.00;99.90
22682;DHT22;11508;50.856;4.380;2023-06-14T09:13:38;36.00;99.90
22682;DHT22;11508;50.856;4.380;2023-06-14T09:16:05;36.00;99.90
22682;DHT22;11508;50.856;4.380;2023-06-14T09:18:42;36.30;99.90
22682;DHT22;11508;50.856;4.380;2023-06-14T09:21:16;35.40;99.90
22682;DHT22;11508;50.856;4.380;2023-06-14T09:23:46;35.40;99.90
22682;DHT22;11508;50.856;4.380;2023-06-14T09:26:19;35.10;99.90
22682;DHT22;11508;50.856;4.380;2023-06-14T09:28:49;35.30;99.90
22682;DHT22;11508;50.856;4.380;2023-06-14T09:31:16;34.40;99.90
22682;DHT22;11508;50.856;4.380;2023-06-14T09:33:51;33.40;99.90
22682;DHT22;11508;50.856;4.380;2023-06-14T09:36:26;34.80;99.90
22682;DHT22;11508;50.856;4.380;2023-06-14T09:39:00;36.00;99.90
22682;DHT22;11508;50.856;4.380;2023-06-14T09:41:34;35.60;99.90
22682;DHT22;11508;50.856;4.380;2023-06-14T09:44:03;34.70;99.90
22682;DHT22;11508;50.856;4.380;2023-06-14T09:46:29;35.60;99.90
22682;DHT22;11508;50.856;4.380;2023-06-14T09:48:59;36.30;99.90
22682;DHT22;11508;50.856;4.380;2023-06-14T09:51:26;35.70;99.90
22682;DHT22;11508;50.856;4.380;2023-06-14T09:53:53;35.20;99.90
22682;DHT22;11508;50.856;4.380;2023-06-14T09:56:32;35.10;99.90
22682;DHT22;11508;50.856;4.380;2023-06-14T09:59:00;35.90;99.90
22682;DHT22;11508;50.856;4.380;2023-06-14T10:01:31;36.10;99.90
22682;DHT22;11508;50.856;4.380;2023-06-14T10:04:05;36.10;99.90
22682;DHT22;11508;50.856;4.380;2023-06-14T10:06:31;35.50;99.90
22682;DHT22;11508;50.856;4.380;2023-06-14T10:08:58;35.40;99.90
22682;DHT22;11508;50.856;4.380;2023-06-14T10:11:28;35.40;99.90
22682;DHT22;11508;50.856;4.380;2023-06-14T10:13:55;35.50;99.90
22682;DHT22;11508;50.856;4.380;2023-06-14T10:22:06;32.40;99.90
22682;DHT22;11508;50.856;4.380;2023-06-14T10:24:38;33.30;99.90
22682;DHT22;11508;50.856;4.380;2023-06-14T10:27:06;32.40;99.90
22682;DHT22;11508;50.856;4.380;2023-06-14T10:32:27;33.70;99.90
22682;DHT22;11508;50.856;4.380;2023-06-14T10:35:06;34.40;99.90
22682;DHT22;11508;50.856;4.380;2023-06-14T10:37:33;33.30;99.90
22682;DHT22;11508;50.856;4.380;2023-06-14T10:39:59;34.20;99.90
22682;DHT22;11508;50.856;4.380;2023-06-14T10:42:51;34.40;99.90
22682;DHT22;11508;50.856;4.380;2023-06-14T10:45:17;35.50;99.90
22682;DHT22;11508;50.856;4.380;2023-06-14T10:47:43;35.50;99.90
22682;DHT22;11508;50.856;4.380;2023-06-14T10:50:10;35.60;99.90
22682;DHT22;11508;50.856;4.380;2023-06-14T10:52:43;35.60;99.90
22682;DHT22;11508;50.856;4.380;2023-06-14T10:55:18;36.30;99.90
22682;DHT22;11508;50.856;4.380;2023-06-14T10:57:54;36.10;99.90
22682;DHT22;11508;50.856;4.380;2023-06-14T11:00:25;35.90;99.90
22682;DHT22;11508;50.856;4.380;2023-06-14T11:03:24;34.60;99.90
22682;DHT22;11508;50.856;4.380;2023-06-14T11:05:57;34.30;99.90
22682;DHT22;11508;50.856;4.380;2023-06-14T11:11:32;35.10;99.90
22682;DHT22;11508;50.856;4.380;2023-06-14T11:14:01;35.40;99.90
22682;DHT22;11508;50.856;4.380;2023-06-14T11:16:29;34.00;99.90
22682;DHT22;11508;50.856;4.380;2023-06-14T11:18:58;34.40;99.90
22682;DHT22;11508;50.856;4.380;2023-06-14T11:21:25;34.30;99.90
22682;DHT22;11508;50.856;4.380;2023-06-14T11:23:55;32.70;99.90
22682;DHT22;11508;50.856;4.380;2023-06-14T11:26:31;32.00;99.90
22682;DHT22;11508;50.856;4.380;2023-06-14T11:29:00;32.40;99.90
22682;DHT22;11508;50.856;4.380;2023-06-14T11:31:27;31.40;99.90
22682;DHT22;11508;50.856;4.380;2023-06-14T11:33:57;30.80;99.90
22682;DHT22;11508;50.856;4.380;2023-06-14T11:36:26;30.60;99.90
22682;DHT22;11508;50.856;4.380;2023-06-14T11:39:01;31.50;99.90
22682;DHT22;11508;50.856;4.380;2023-06-14T11:41:42;32.80;99.90
22682;DHT22;11508;50.856;4.380;2023-06-14T11:44:08;33.80;99.90
22682;DHT22;11508;50.856;4.380;2023-06-14T11:46:34;33.40;99.90
22682;DHT22;11508;50.856;4.380;2023-06-14T11:49:00;33.80;99.90
22682;DHT22;11508;50.856;4.380;2023-06-14T11:51:29;33.30;99.90
22682;DHT22;11508;50.856;4.380;2023-06-14T11:53:55;33.50;99.90
22682;DHT22;11508;50.856;4.380;2023-06-14T11:56:21;33.50;99.90
22682;DHT22;11508;50.856;4.380;2023-06-14T11:58:47;33.50;99.90
22682;DHT22;11508;50.856;4.380;2023-06-14T12:01:19;34.10;99.90
22682;DHT22;11508;50.856;4.380;2023-06-14T12:03:50;33.70;99.90
22682;DHT22;11508;50.856;4.380;2023-06-14T12:06:17;34.10;99.90
22682;DHT22;11508;50.856;4.380;2023-06-14T12:08:50;33.70;99.90
22682;DHT22;11508;50.856;4.380;2023-06-14T12:11:16;33.80;99.90
22682;DHT22;11508;50.856;4.380;2023-06-14T12:13:43;34.00;99.90
22682;DHT22;11508;50.856;4.380;2023-06-14T12:16:10;34.10;99.90
22682;DHT22;11508;50.856;4.380;2023-06-14T12:18:39;34.20;99.90
22682;DHT22;11508;50.856;4.380;2023-06-14T12:21:08;33.40;99.90
22682;DHT22;11508;50.856;4.380;2023-06-14T12:23:53;33.60;99.90
22682;DHT22;11508;50.856;4.380;2023-06-14T12:26:19;34.10;99.90
22682;DHT22;11508;50.856;4.380;2023-06-14T12:28:47;34.20;99.90
22682;DHT22;11508;50.856;4.380;2023-06-14T12:31:14;33.20;99.90
22682;DHT22;11508;50.856;4.380;2023-06-14T12:33:40;32.90;99.90
22682;DHT22;11508;50.856;4.380;2023-06-14T12:36:07;33.40;99.90
22682;DHT22;11508;50.856;4.380;2023-06-14T12:38:33;33.10;99.90
22682;DHT22;11508;50.856;4.380;2023-06-14T12:41:01;33.00;99.90
22682;DHT22;11508;50.856;4.380;2023-06-14T12:43:27;33.00;99.90
22682;DHT22;11508;50.856;4.380;2023-06-14T12:45:53;33.10;99.90
22682;DHT22;11508;50.856;4.380;2023-06-14T12:48:20;33.30;99.90
22682;DHT22;11508;50.856;4.380;2023-06-14T12:50:46;33.50;99.90
22682;DHT22;11508;50.856;4.380;2023-06-14T12:53:12;33.20;99.90
22682;DHT22;11508;50.856;4.380;2023-06-14T12:55:38;33.50;99.90
22682;DHT22;11508;50.856;4.380;2023-06-14T12:58:03;33.10;99.90
22682;DHT22;11508;50.856;4.380;2023-06-14T13:00:30;32.80;99.90
22682;DHT22;11508;50.856;4.380;2023-06-14T13:02:59;33.20;99.90
22682;DHT22;11508;50.856;4.380;2023-06-14T13:05:24;33.00;99.90
22682;DHT22;11508;50.856;4.380;2023-06-14T13:07:51;32.40;99.90
22682;DHT22;11508;50.856;4.380;2023-06-14T13:10:17;32.20;99.90
22682;DHT22;11508;50.856;4.380;2023-06-14T13:12:43;32.00;99.90
22682;DHT22;11508;50.856;4.380;2023-06-14T13:15:09;31.90;99.90
22682;DHT22;11508;50.856;4.380;2023-06-14T13:17:35;32.10;99.90
22682;DHT22;11508;50.856;4.380;2023-06-14T13:20:07;31.40;99.90
22682;DHT22;11508;50.856;4.380;2023-06-14T13:22:34;31.20;99.90
22682;DHT22;11508;50.856;4.380;2023-06-14T13:25:00;30.30;99.90
22682;DHT22;11508;50.856;4.380;2023-06-14T13:27:26;30.30;99.90
22682;DHT22;11508;50.856;4.380;2023-06-14T13:29:52;30.70;99.90
22682;DHT22;11508;50.856;4.380;2023-06-14T13:32:18;30.70;99.90
22682;DHT22;11508;50.856;4.380;2023-06-14T13:34:43;30.10;99.90
22682;DHT22;11508;50.856;4.380;2023-06-14T13:37:10;29.30;99.90
22682;DHT22;11508;50.856;4.380;2023-06-14T13:39:36;29.10;99.90
22682;DHT22;11508;50.856;4.380;2023-06-14T13:42:03;29.20;99.90
22682;DHT22;11508;50.856;4.380;2023-06-14T13:44:29;29.20;99.90
22682;DHT22;11508;50.856;4.380;2023-06-14T13:46:54;28.80;99.90
22682;DHT22;11508;50.856;4.380;2023-06-14T13:49:20;28.80;99.90
22682;DHT22;11508;50.856;4.380;2023-06-14T13:51:46;28.90;99.90
22682;DHT22;11508;50.856;4.380;2023-06-14T13:54:18;28.70;99.90
22682;DHT22;11508;50.856;4.380;2023-06-14T13:56:44;28.60;99.90
22682;DHT22;11508;50.856;4.380;2023-06-14T13:59:10;28.70;99.90
22682;DHT22;11508;50.856;4.380;2023-06-14T14:01:36;28.90;99.90
22682;DHT22;11508;50.856;4.380;2023-06-14T14:04:02;28.90;99.90
22682;DHT22;11508;50.856;4.380;2023-06-14T14:06:27;29.00;99.90
22682;DHT22;11508;50.856;4.380;2023-06-14T14:08:53;28.70;99.90
22682;DHT22;11508;50.856;4.380;2023-06-14T14:11:19;28.60;99.90
22682;DHT22;11508;50.856;4.380;2023-06-14T14:13:46;28.40;99.90
22682;DHT22;11508;50.856;4.380;2023-06-14T14:16:13;28.40;99.90
22682;DHT22;11508;50.856;4.380;2023-06-14T14:18:39;28.50;99.90
22682;DHT22;11508;50.856;4.380;2023-06-14T14:21:05;28.30;99.90
22682;DHT22;11508;50.856;4.380;2023-06-14T14:23:31;28.10;99.90
22682;DHT22;11508;50.856;4.380;2023-06-14T14:25:56;28.20;99.90
22682;DHT22;11508;50.856;4.380;2023-06-14T14:28:23;28.40;99.90
22682;DHT22;11508;50.856;4.380;2023-06-14T14:30:49;28.00;99.90
22682;DHT22;11508;50.856;4.380;2023-06-14T14:33:15;27.70;99.90
22682;DHT22;11508;50.856;4.380;2023-06-14T14:35:45;27.60;99.90
22682;DHT22;11508;50.856;4.380;2023-06-14T14:38:15;28.00;99.90
22682;DHT22;11508;50.856;4.380;2023-06-14T14:40:42;28.20;99.90
22682;DHT22;11508;50.856;4.380;2023-06-14T14:43:08;28.50;99.90
22682;DHT22;11508;50.856;4.380;2023-06-14T14:45:34;28.40;99.90
22682;DHT22;11508;50.856;4.380;2023-06-14T14:48:00;28.40;99.90
22682;DHT22;11508;50.856;4.380;2023-06-14T14:50:26;28.10;99.90
22682;DHT22;11508;50.856;4.380;2023-06-14T14:52:52;28.20;99.90
22682;DHT22;11508;50.856;4.380;2023-06-14T14:55:18;28.30;99.90
22682;DHT22;11508;50.856;4.380;2023-06-14T14:57:45;28.00;99.90
22682;DHT22;11508;50.856;4.380;2023-06-14T15:00:11;27.80;99.90
22682;DHT22;11508;50.856;4.380;2023-06-14T15:02:36;27.70;99.90
22682;DHT22;11508;50.856;4.380;2023-06-14T15:05:02;28.10;99.90
22682;DHT22;11508;50.856;4.380;2023-06-14T15:07:28;28.50;99.90
22682;DHT22;11508;50.856;4.380;2023-06-14T15:09:54;28.60;99.90
22682;DHT22;11508;50.856;4.380;2023-06-14T15:12:20;28.60;99.90
22682;DHT22;11508;50.856;4.380;2023-06-14T15:14:51;28.60;99.90
22682;DHT22;11508;50.856;4.380;2023-06-14T15:17:18;28.40;99.90
22682;DHT22;11508;50.856;4.380;2023-06-14T15:19:46;28.40;99.90
22682;DHT22;11508;50.856;4.380;2023-06-14T15:22:13;28.40;99.90
22682;DHT22;11508;50.856;4.380;2023-06-14T15:24:42;28.40;99.90
22682;DHT22;11508;50.856;4.380;2023-06-14T15:27:08;28.50;99.90
22682;DHT22;11508;50.856;4.380;2023-06-14T15:29:35;28.50;99.90
22682;DHT22;11508;50.856;4.380;2023-06-14T15:32:01;28.20;99.90
22682;DHT22;11508;50.856;4.380;2023-06-14T15:34:26;27.90;99.90
22682;DHT22;11508;50.856;4.380;2023-06-14T15:36:52;27.90;99.90
22682;DHT22;11508;50.856;4.380;2023-06-14T15:39:18;27.80;99.90
22682;DHT22;11508;50.856;4.380;2023-06-14T15:41:43;27.90;99.90
22682;DHT22;11508;50.856;4.380;2023-06-14T15:44:09;27.90;99.90
22682;DHT22;11508;50.856;4.380;2023-06-14T15:46:35;27.60;99.90
22682;DHT22;11508;50.856;4.380;2023-06-14T15:49:00;27.40;99.90
22682;DHT22;11508;50.856;4.380;2023-06-14T15:51:28;27.30;99.90
22682;DHT22;11508;50.856;4.380;2023-06-14T15:53:53;27.60;99.90
22682;DHT22;11508;50.856;4.380;2023-06-14T15:56:20;27.80;99.90
22682;DHT22;11508;50.856;4.380;2023-06-14T15:58:46;28.00;99.90
22682;DHT22;11508;50.856;4.380;2023-06-14T16:01:12;28.10;99.90
22682;DHT22;11508;50.856;4.380;2023-06-14T16:03:37;28.00;99.90
22682;DHT22;11508;50.856;4.380;2023-06-14T16:06:04;28.00;99.90
22682;DHT22;11508;50.856;4.380;2023-06-14T16:08:30;27.90;99.90
22682;DHT22;11508;50.856;4.380;2023-06-14T16:10:56;28.10;99.90
22682;DHT22;11508;50.856;4.380;2023-06-14T16:13:21;28.20;99.90